Terminal Aerodrome Forecast
Issued by NWS

Home | Current Version | Previous Version | Text Only | Print | Product List | Glossary On
Versions: 1 2 3 4 5 6 7 8 9 10 11 12 13 14 15
601
FTAK31 PAJN 261720
TAFAWG
TAF
PAWG 261720Z 2618/2718 VRB04KT P6SM -RA FEW002 BKN035 OVC050
      TEMPO 2618/2622 6SM -RA BR FEW002 SCT015 OVC030
     FM270400 12003KT P6SM VCSH SCT015 OVC035=

USA.gov is the U.S. government's official web portal to all federal, state and local government web resources and services.